Time;durP1;ratioP1;P1;durP2;ratioP2;P2;SDS_P1;SDS_P2;PMS_P1;PMS_P2;Temp;Humidity;BMP_temperature;BMP_pressure;BME280_temperature;BME280_humidity;BME280_pressure;Samples;Min_cycle;Max_cycle;Signal;HPM_P1;HPM_P2
2024/04/15 00:02:26;;;;;;;8.85;6.90;;;;;;;;;;5481980;26;20002;-60
2024/04/15 00:04:52;;;;;;;10.57;7.28;;;;;;;;;;5486187;26;20461;-60
2024/04/15 00:07:20;;;;;;;13.05;9.30;;;;;;;;;;5480571;26;20010;-60
2024/04/15 00:09:46;;;;;;;9.00;6.70;;;;;;;;;;5481238;26;20009;-61
2024/04/15 00:12:15;;;;;;;9.40;6.97;;;;;;;;;;5486856;26;20002;-61
2024/04/15 00:14:40;;;;;;;9.57;6.97;;;;;;;;;;5467974;26;20010;-59
2024/04/15 00:17:09;;;;;;;9.32;7.18;;;;;;;;;;5486576;26;20032;-60
2024/04/15 00:19:38;;;;;;;11.52;6.65;;;;;;;;;;5486803;26;19998;-61
2024/04/15 00:22:07;;;;;;;8.75;6.68;;;;;;;;;;5486862;26;20521;-61
2024/04/15 00:24:33;;;;;;;11.18;6.85;;;;;;;;;;5486160;26;20002;-60
2024/04/15 00:27:01;;;;;;;9.95;6.82;;;;;;;;;;5486723;26;20361;-61
2024/04/15 00:29:27;;;;;;;10.07;7.60;;;;;;;;;;5486397;26;20082;-61
2024/04/15 00:31:56;;;;;;;11.40;7.15;;;;;;;;;;5477109;26;20010;-60
2024/04/15 00:34:22;;;;;;;12.38;8.75;;;;;;;;;;5481396;26;20414;-57
2024/04/15 00:36:53;;;;;;;11.88;8.07;;;;;;;;;;5485995;26;19998;-60
2024/04/15 00:39:19;;;;;;;11.63;8.48;;;;;;;;;;5486701;26;20079;-61
2024/04/15 00:41:47;;;;;;;10.95;8.05;;;;;;;;;;5486632;26;20006;-60
2024/04/15 00:44:13;;;;;;;11.27;8.15;;;;;;;;;;5486169;26;20010;-60
2024/04/15 00:46:42;;;;;;;9.30;7.68;;;;;;;;;;5485764;26;20030;-60
2024/04/15 00:49:09;;;;;;;10.98;7.70;;;;;;;;;;5486472;26;19994;-60
2024/04/15 00:51:38;;;;;;;10.05;7.80;;;;;;;;;;5486151;26;20009;-60
2024/04/15 00:54:09;;;;;;;9.50;6.70;;;;;;;;;;5486013;26;20453;-60
2024/04/15 00:56:38;;;;;;;9.80;6.63;;;;;;;;;;5485892;26;20014;-60
2024/04/15 00:59:04;;;;;;;9.55;6.10;;;;;;;;;;5486112;26;20727;-60
2024/04/15 01:01:33;;;;;;;9.18;5.90;;;;;;;;;;5486182;26;20089;-60
2024/04/15 01:03:59;;;;;;;8.50;6.00;;;;;;;;;;5485622;26;20457;-58
2024/04/15 01:06:27;;;;;;;8.77;6.28;;;;;;;;;;5485709;26;20006;-60
2024/04/15 01:08:53;;;;;;;7.93;5.88;;;;;;;;;;5486133;26;20432;-60
2024/04/15 01:11:26;;;;;;;7.55;5.22;;;;;;;;;;5485690;26;20013;-60
2024/04/15 01:13:51;;;;;;;8.77;5.13;;;;;;;;;;5485550;26;20066;-59
2024/04/15 01:16:20;;;;;;;6.43;4.30;;;;;;;;;;5485010;26;20014;-58
2024/04/15 01:18:46;;;;;;;6.65;4.07;;;;;;;;;;5479762;26;20017;-59
2024/04/15 01:21:14;;;;;;;7.40;4.28;;;;;;;;;;5486718;26;20002;-59
2024/04/15 01:23:46;;;;;;;5.82;4.22;;;;;;;;;;5489173;26;20458;-61
2024/04/15 01:26:14;;;;;;;6.70;3.72;;;;;;;;;;5489008;26;20009;-60
2024/04/15 01:28:41;;;;;;;6.78;3.72;;;;;;;;;;5489637;26;20518;-60
2024/04/15 01:31:09;;;;;;;5.55;3.67;;;;;;;;;;5489597;26;20489;-60
2024/04/15 01:33:35;;;;;;;5.45;3.90;;;;;;;;;;5489314;26;19998;-61
2024/04/15 01:36:04;;;;;;;6.70;4.72;;;;;;;;;;5489411;26;20043;-61
2024/04/15 01:38:30;;;;;;;5.93;4.63;;;;;;;;;;5489869;26;20014;-61
2024/04/15 01:41:01;;;;;;;8.75;4.93;;;;;;;;;;5489386;26;20383;-58
2024/04/15 01:43:27;;;;;;;7.72;4.97;;;;;;;;;;5489027;26;20435;-61
2024/04/15 01:45:56;;;;;;;8.02;5.07;;;;;;;;;;5488979;26;20034;-61
2024/04/15 01:48:22;;;;;;;7.38;5.03;;;;;;;;;;5489168;26;20002;-61
2024/04/15 01:50:50;;;;;;;8.07;5.18;;;;;;;;;;5489456;26;20024;-61
2024/04/15 01:53:16;;;;;;;9.35;5.18;;;;;;;;;;5489054;26;20013;-61
2024/04/15 01:55:46;;;;;;;7.63;4.70;;;;;;;;;;5489284;26;20010;-61
2024/04/15 01:58:14;;;;;;;7.93;5.35;;;;;;;;;;5489491;26;20006;-61
2024/04/15 02:00:43;;;;;;;6.32;4.55;;;;;;;;;;5489901;26;19998;-57
2024/04/15 02:03:08;;;;;;;6.28;4.50;;;;;;;;;;5489026;26;20480;-61
2024/04/15 02:05:37;;;;;;;9.13;5.75;;;;;;;;;;5489044;26;20010;-60
2024/04/15 02:08:04;;;;;;;7.00;5.10;;;;;;;;;;5488665;26;20034;-61
2024/04/15 02:10:32;;;;;;;7.93;4.65;;;;;;;;;;5486306;26;20042;-57
2024/04/15 02:12:58;;;;;;;7.88;5.25;;;;;;;;;;5488705;26;20082;-61
2024/04/15 02:15:30;;;;;;;9.02;4.85;;;;;;;;;;5488887;26;20481;-61
2024/04/15 02:17:55;;;;;;;7.80;4.70;;;;;;;;;;5488919;26;20341;-61
2024/04/15 02:20:24;;;;;;;6.60;4.22;;;;;;;;;;5488856;26;20030;-61
2024/04/15 02:22:50;;;;;;;6.40;4.20;;;;;;;;;;5488821;26;20074;-61
2024/04/15 02:25:18;;;;;;;7.57;4.35;;;;;;;;;;5488657;26;20454;-61
2024/04/15 02:27:44;;;;;;;6.40;4.05;;;;;;;;;;5475774;26;20002;-61
2024/04/15 02:30:13;;;;;;;5.35;3.70;;;;;;;;;;5488756;26;20014;-61
2024/04/15 02:32:42;;;;;;;5.82;3.55;;;;;;;;;;5488400;26;20431;-61
2024/04/15 02:35:11;;;;;;;6.32;4.10;;;;;;;;;;5488789;26;20014;-61
2024/04/15 02:37:37;;;;;;;5.65;3.30;;;;;;;;;;5488247;26;20018;-60
2024/04/15 02:40:07;;;;;;;6.13;3.50;;;;;;;;;;5488669;26;20006;-60
2024/04/15 02:42:33;;;;;;;5.07;3.30;;;;;;;;;;5481389;26;19999;-60
2024/04/15 02:45:01;;;;;;;7.15;3.67;;;;;;;;;;5488352;26;19998;-58
2024/04/15 02:47:27;;;;;;;6.43;3.22;;;;;;;;;;5488446;26;20133;-60
2024/04/15 02:49:58;;;;;;;5.32;3.30;;;;;;;;;;5488673;26;20014;-60
2024/04/15 02:52:24;;;;;;;6.05;4.07;;;;;;;;;;5483641;26;20017;-61
2024/04/15 02:54:53;;;;;;;4.90;3.45;;;;;;;;;;5488325;26;20010;-60
2024/04/15 02:57:19;;;;;;;5.40;3.47;;;;;;;;;;5473083;26;20083;-60
2024/04/15 02:59:47;;;;;;;5.63;3.88;;;;;;;;;;5488174;26;20382;-60
2024/04/15 03:02:13;;;;;;;5.13;3.60;;;;;;;;;;5488267;26;20002;-59
2024/04/15 03:04:41;;;;;;;6.20;3.80;;;;;;;;;;5488352;26;20503;-60
2024/04/15 03:07:10;;;;;;;6.38;3.67;;;;;;;;;;5488017;26;19998;-60
2024/04/15 03:09:39;;;;;;;6.35;3.65;;;;;;;;;;5487882;26;20447;-60
2024/04/15 03:12:05;;;;;;;4.88;3.08;;;;;;;;;;5479084;26;20006;-60
2024/04/15 03:14:34;;;;;;;6.68;3.22;;;;;;;;;;5488056;26;19994;-60
2024/04/15 03:17:01;;;;;;;5.05;3.17;;;;;;;;;;5488118;26;20461;-60
2024/04/15 03:19:30;;;;;;;6.60;2.97;;;;;;;;;;5478690;26;20469;-60
2024/04/15 03:21:56;;;;;;;4.70;2.95;;;;;;;;;;5479478;26;20023;-60
2024/04/15 03:24:27;;;;;;;5.97;3.28;;;;;;;;;;5487779;26;20256;-60
2024/04/15 03:26:53;;;;;;;5.65;3.30;;;;;;;;;;5487413;26;20031;-59
2024/04/15 03:29:22;;;;;;;4.80;3.08;;;;;;;;;;5488135;26;20078;-60
2024/04/15 03:31:48;;;;;;;5.28;3.30;;;;;;;;;;5487626;26;20449;-61
2024/04/15 03:34:16;;;;;;;5.63;3.35;;;;;;;;;;5480468;26;20021;-60
2024/04/15 03:36:46;;;;;;;5.00;3.17;;;;;;;;;;5487750;26;20005;-61
2024/04/15 03:39:15;;;;;;;4.95;3.15;;;;;;;;;;5488075;26;20009;-61
2024/04/15 03:41:46;;;;;;;5.65;3.58;;;;;;;;;;5483554;26;20009;-60
2024/04/15 03:44:14;;;;;;;6.45;3.30;;;;;;;;;;5487145;26;20408;-61
2024/04/15 03:46:40;;;;;;;5.25;3.15;;;;;;;;;;5487060;26;20020;-60
2024/04/15 03:49:09;;;;;;;6.63;3.10;;;;;;;;;;5487809;26;20478;-60
2024/04/15 03:51:35;;;;;;;5.03;3.15;;;;;;;;;;5487648;26;20078;-60
2024/04/15 03:54:03;;;;;;;5.28;3.20;;;;;;;;;;5487041;26;20013;-61
2024/04/15 03:56:29;;;;;;;5.28;3.53;;;;;;;;;;5486993;26;20590;-61
2024/04/15 03:59:00;;;;;;;5.57;3.58;;;;;;;;;;5487509;26;20156;-60
2024/04/15 04:01:26;;;;;;;5.18;3.63;;;;;;;;;;5487504;26;20010;-60
2024/04/15 04:03:55;;;;;;;6.32;4.15;;;;;;;;;;5486613;26;20017;-61
2024/04/15 04:06:21;;;;;;;7.68;3.58;;;;;;;;;;5480382;26;20022;-57
2024/04/15 04:08:49;;;;;;;7.10;3.53;;;;;;;;;;5487220;26;20015;-55
2024/04/15 04:11:15;;;;;;;5.75;4.07;;;;;;;;;;5487013;26;20006;-62
2024/04/15 04:13:44;;;;;;;5.40;3.90;;;;;;;;;;5486588;26;20017;-60
2024/04/15 04:16:13;;;;;;;5.85;3.67;;;;;;;;;;5486593;26;20022;-61
2024/04/15 04:18:42;;;;;;;7.80;4.38;;;;;;;;;;5481820;26;20459;-61
2024/04/15 04:21:09;;;;;;;6.47;3.72;;;;;;;;;;5486018;26;20010;-61
2024/04/15 04:23:38;;;;;;;13.90;4.30;;;;;;;;;;5485115;26;20013;-61
2024/04/15 04:26:04;;;;;;;6.15;4.22;;;;;;;;;;5479894;26;20457;-60
2024/04/15 04:28:33;;;;;;;6.45;4.35;;;;;;;;;;5486962;26;20474;-60
2024/04/15 04:31:01;;;;;;;5.85;4.65;;;;;;;;;;5483262;26;19998;-60
2024/04/15 04:33:33;;;;;;;6.32;4.25;;;;;;;;;;5486465;26;20410;-59
2024/04/15 04:36:00;;;;;;;6.00;3.92;;;;;;;;;;5486621;26;19995;-60
2024/04/15 04:38:28;;;;;;;6.28;4.10;;;;;;;;;;5486325;26;20457;-60
2024/04/15 04:40:57;;;;;;;6.43;3.95;;;;;;;;;;5486694;26;20017;-61
2024/04/15 04:43:26;;;;;;;5.78;4.15;;;;;;;;;;5486571;26;20045;-60
2024/04/15 04:45:52;;;;;;;6.93;4.50;;;;;;;;;;5486381;26;20013;-61
2024/04/15 04:48:21;;;;;;;8.63;4.13;;;;;;;;;;5486567;26;19998;-61
2024/04/15 04:50:53;;;;;;;6.45;3.78;;;;;;;;;;5487002;26;20018;-61
2024/04/15 04:53:19;;;;;;;6.45;3.75;;;;;;;;;;5486102;26;20074;-60
2024/04/15 04:55:47;;;;;;;6.43;4.45;;;;;;;;;;5490323;26;20002;-57
2024/04/15 04:58:13;;;;;;;5.60;3.88;;;;;;;;;;5489871;26;20017;-61
2024/04/15 05:00:41;;;;;;;7.28;4.20;;;;;;;;;;5490106;26;20437;-59
2024/04/15 05:03:07;;;;;;;6.30;3.97;;;;;;;;;;5490123;26;20078;-59
2024/04/15 05:05:37;;;;;;;7.72;4.55;;;;;;;;;;5490011;26;20006;-60
2024/04/15 05:08:06;;;;;;;5.85;3.75;;;;;;;;;;5489905;26;20002;-60
2024/04/15 05:10:34;;;;;;;6.93;4.57;;;;;;;;;;5489595;26;20493;-60
2024/04/15 05:13:00;;;;;;;7.47;4.72;;;;;;;;;;5489904;26;20078;-60
2024/04/15 05:15:29;;;;;;;6.78;4.70;;;;;;;;;;5489669;26;20411;-60
2024/04/15 05:17:55;;;;;;;7.55;5.03;;;;;;;;;;5489699;26;19994;-58
2024/04/15 05:20:24;;;;;;;7.32;4.88;;;;;;;;;;5489626;26;19998;-60
2024/04/15 05:22:50;;;;;;;7.00;4.78;;;;;;;;;;5489656;26;20078;-59
2024/04/15 05:25:21;;;;;;;8.02;5.28;;;;;;;;;;5489572;26;20014;-60
2024/04/15 05:27:47;;;;;;;7.82;4.80;;;;;;;;;;5475311;26;20006;-59
2024/04/15 05:30:15;;;;;;;7.80;4.28;;;;;;;;;;5489763;26;20028;-60
2024/04/15 05:32:41;;;;;;;8.38;4.65;;;;;;;;;;5489446;26;20514;-58
2024/04/15 05:35:10;;;;;;;7.97;5.13;;;;;;;;;;5489403;26;20002;-60
2024/04/15 05:37:35;;;;;;;7.57;5.22;;;;;;;;;;5488641;26;20020;-57
2024/04/15 05:40:04;;;;;;;6.90;4.60;;;;;;;;;;5489166;26;20006;-59
2024/04/15 05:42:33;;;;;;;7.18;5.15;;;;;;;;;;5488944;26;20013;-59
2024/04/15 05:45:01;;;;;;;8.35;5.32;;;;;;;;;;5488961;26;20002;-59
2024/04/15 05:47:27;;;;;;;6.70;5.10;;;;;;;;;;5488889;26;20013;-60
2024/04/15 05:49:55;;;;;;;7.60;4.50;;;;;;;;;;5489403;26;20357;-59
2024/04/15 05:52:21;;;;;;;7.28;4.60;;;;;;;;;;5489446;26;20013;-59
2024/04/15 05:54:50;;;;;;;7.47;4.57;;;;;;;;;;5488810;26;20067;-59
2024/04/15 05:57:16;;;;;;;7.30;4.88;;;;;;;;;;5488751;26;20395;-60
2024/04/15 05:59:47;;;;;;;6.90;4.85;;;;;;;;;;5489607;26;20012;-59
2024/04/15 06:02:13;;;;;;;9.23;5.10;;;;;;;;;;5488610;26;20046;-59
2024/04/15 06:04:41;;;;;;;8.55;5.65;;;;;;;;;;5487696;26;20070;-59
2024/04/15 06:07:08;;;;;;;9.27;5.45;;;;;;;;;;5487977;26;20512;-59
2024/04/15 06:09:39;;;;;;;11.50;6.32;;;;;;;;;;5486991;26;20038;-61
2024/04/15 06:12:06;;;;;;;8.80;6.03;;;;;;;;;;5483415;26;20012;-60
2024/04/15 06:14:34;;;;;;;10.52;6.13;;;;;;;;;;5479911;26;19998;-59
2024/04/15 06:17:03;;;;;;;10.00;5.53;;;;;;;;;;5468848;26;20015;-59
2024/04/15 06:19:33;;;;;;;9.55;4.57;;;;;;;;;;5488305;26;20002;-60
2024/04/15 06:22:00;;;;;;;8.40;4.78;;;;;;;;;;5488392;26;20446;-60
2024/04/15 06:24:30;;;;;;;6.88;4.57;;;;;;;;;;5483723;26;20403;-60
2024/04/15 06:27:00;;;;;;;6.95;4.63;;;;;;;;;;5464983;26;20013;-59
2024/04/15 06:29:25;;;;;;;6.75;4.88;;;;;;;;;;5480165;26;20347;-60
2024/04/15 06:31:54;;;;;;;9.90;4.97;;;;;;;;;;5480813;26;20009;-58
2024/04/15 06:34:24;;;;;;;7.55;4.80;;;;;;;;;;5487861;26;20009;-60
2024/04/15 06:36:55;;;;;;;7.82;4.70;;;;;;;;;;5483772;26;20002;-58
2024/04/15 06:39:21;;;;;;;8.23;4.85;;;;;;;;;;5488443;26;20034;-60
2024/04/15 06:41:49;;;;;;;7.78;5.07;;;;;;;;;;5488243;26;20056;-60
2024/04/15 06:44:16;;;;;;;7.65;4.80;;;;;;;;;;5487752;26;20080;-60
2024/04/15 06:46:45;;;;;;;6.65;4.93;;;;;;;;;;5487722;26;20017;-61
2024/04/15 06:49:10;;;;;;;7.18;4.78;;;;;;;;;;5487988;26;20047;-60
2024/04/15 06:51:42;;;;;;;7.38;5.10;;;;;;;;;;5488192;26;20014;-60
2024/04/15 06:54:08;;;;;;;8.43;5.10;;;;;;;;;;5475844;26;20018;-60
2024/04/15 06:56:37;;;;;;;7.35;5.00;;;;;;;;;;5479482;26;20006;-60
2024/04/15 06:59:03;;;;;;;6.47;4.60;;;;;;;;;;5488157;26;20075;-57
2024/04/15 07:01:31;;;;;;;7.50;4.45;;;;;;;;;;5487969;26;20006;-58
2024/04/15 07:03:57;;;;;;;7.40;4.53;;;;;;;;;;5488010;26;20013;-59
2024/04/15 07:06:26;;;;;;;7.22;4.15;;;;;;;;;;5487782;26;20010;-60
2024/04/15 07:08:55;;;;;;;7.78;5.30;;;;;;;;;;5488472;26;20013;-59
2024/04/15 07:11:23;;;;;;;8.15;5.13;;;;;;;;;;5476260;26;20018;-60
2024/04/15 07:13:50;;;;;;;5.25;4.05;;;;;;;;;;5474038;26;20082;-59
2024/04/15 07:16:18;;;;;;;8.60;4.70;;;;;;;;;;5473523;26;19999;-59
2024/04/15 07:18:44;;;;;;;10.00;4.95;;;;;;;;;;5473408;26;20010;-59
2024/04/15 07:21:13;;;;;;;6.07;4.43;;;;;;;;;;5473679;26;20438;-60
2024/04/15 07:23:39;;;;;;;6.90;3.80;;;;;;;;;;5481012;26;20794;-60
2024/04/15 07:26:10;;;;;;;7.40;4.68;;;;;;;;;;5487410;26;20034;-60
2024/04/15 07:28:36;;;;;;;6.85;4.07;;;;;;;;;;5484018;26;19998;-60
2024/04/15 07:31:05;;;;;;;12.48;4.85;;;;;;;;;;5470125;26;19995;-59
2024/04/15 07:33:31;;;;;;;6.97;4.15;;;;;;;;;;5481212;26;20373;-60
2024/04/15 07:36:02;;;;;;;7.40;4.10;;;;;;;;;;5476130;26;20013;-60
2024/04/15 07:38:27;;;;;;;7.55;4.05;;;;;;;;;;5468610;26;20458;-60
2024/04/15 07:40:56;;;;;;;6.50;4.00;;;;;;;;;;5472986;26;22332;-61
2024/04/15 07:43:26;;;;;;;6.55;3.90;;;;;;;;;;5478335;26;19998;-60
2024/04/15 07:45:54;;;;;;;7.50;4.27;;;;;;;;;;5483904;26;20062;-61
2024/04/15 07:48:26;;;;;;;7.80;4.53;;;;;;;;;;5467059;26;21142;-59
2024/04/15 07:50:52;;;;;;;8.45;5.07;;;;;;;;;;5468270;26;20002;-62
2024/04/15 07:53:23;;;;;;;10.43;6.00;;;;;;;;;;5464959;26;19999;-62
2024/04/15 07:55:49;;;;;;;8.98;5.45;;;;;;;;;;5457945;26;20003;-60
2024/04/15 07:58:17;;;;;;;13.20;5.53;;;;;;;;;;5474631;26;20467;-60
2024/04/15 08:00:46;;;;;;;12.13;5.88;;;;;;;;;;5461497;26;20003;-59
2024/04/15 08:03:15;;;;;;;11.13;6.10;;;;;;;;;;5461624;26;20003;-56
2024/04/15 08:05:41;;;;;;;10.10;5.00;;;;;;;;;;5472361;26;20076;-60
2024/04/15 08:08:10;;;;;;;8.98;5.63;;;;;;;;;;5475602;26;20492;-59
2024/04/15 08:10:36;;;;;;;8.50;5.40;;;;;;;;;;5467379;26;20453;-60
2024/04/15 08:13:05;;;;;;;8.18;5.00;;;;;;;;;;5473995;26;19994;-59
2024/04/15 08:15:32;;;;;;;8.68;4.90;;;;;;;;;;5482955;26;20017;-59
2024/04/15 08:18:03;;;;;;;8.90;4.88;;;;;;;;;;5486166;26;20346;-59
2024/04/15 08:20:29;;;;;;;7.80;4.80;;;;;;;;;;5475102;26;20010;-60
2024/04/15 08:22:58;;;;;;;8.65;5.47;;;;;;;;;;5461839;26;20010;-59
2024/04/15 08:25:24;;;;;;;8.55;5.05;;;;;;;;;;5466223;26;20013;-58
2024/04/15 08:27:52;;;;;;;7.38;4.70;;;;;;;;;;5477143;26;20002;-60
2024/04/15 08:30:19;;;;;;;7.18;5.13;;;;;;;;;;5487619;26;19998;-60
2024/04/15 08:32:50;;;;;;;7.32;4.68;;;;;;;;;;5475010;26;20014;-60
2024/04/15 08:35:19;;;;;;;8.77;5.10;;;;;;;;;;5480456;26;19998;-60
2024/04/15 08:37:47;;;;;;;7.68;5.32;;;;;;;;;;5465465;26;20026;-60
2024/04/15 08:40:13;;;;;;;6.18;4.35;;;;;;;;;;5470651;26;20013;-60
2024/04/15 08:42:52;;;;;;;8.18;4.57;;;;;;;;;;5480689;26;20002;-60
2024/04/15 08:45:19;;;;;;;7.35;4.50;;;;;;;;;;5482180;26;20337;-60
2024/04/15 08:47:52;;;;;;;7.72;4.65;;;;;;;;;;5470529;26;20006;-58
2024/04/15 08:50:21;;;;;;;7.85;4.75;;;;;;;;;;5472680;26;20018;-61
2024/04/15 08:52:51;;;;;;;6.93;4.70;;;;;;;;;;5475341;26;20065;-62
2024/04/15 08:55:18;;;;;;;11.20;5.43;;;;;;;;;;5488550;26;20082;-60
2024/04/15 08:57:48;;;;;;;7.72;4.88;;;;;;;;;;5475617;26;19999;-54
2024/04/15 09:00:17;;;;;;;9.07;5.13;;;;;;;;;;5475039;26;20078;-62
2024/04/15 09:02:46;;;;;;;7.28;4.43;;;;;;;;;;5467452;26;20257;-56
2024/04/15 09:05:12;;;;;;;7.25;4.88;;;;;;;;;;5479245;26;20010;-60
2024/04/15 09:07:44;;;;;;;25.40;6.63;;;;;;;;;;5484016;26;20353;-59
2024/04/15 09:10:11;;;;;;;9.07;5.68;;;;;;;;;;5488853;26;20341;-60
2024/04/15 09:12:41;;;;;;;9.85;5.65;;;;;;;;;;5473488;26;20082;-57
2024/04/15 09:15:09;;;;;;;9.20;5.43;;;;;;;;;;5479715;26;20005;-56
2024/04/15 09:17:38;;;;;;;10.75;5.57;;;;;;;;;;5484394;26;20002;-57
2024/04/15 09:20:06;;;;;;;10.68;6.90;;;;;;;;;;5487158;26;20010;-61
2024/04/15 09:22:36;;;;;;;11.55;5.90;;;;;;;;;;5482270;26;19998;-57
2024/04/15 09:25:05;;;;;;;7.97;5.88;;;;;;;;;;5479781;26;20343;-58
2024/04/15 09:27:34;;;;;;;8.32;5.55;;;;;;;;;;5478617;26;20013;-56
2024/04/15 09:30:00;;;;;;;10.35;5.60;;;;;;;;;;5471352;26;20415;-60
2024/04/15 09:32:29;;;;;;;9.85;5.95;;;;;;;;;;5479566;26;19998;-59
2024/04/15 09:34:58;;;;;;;9.02;5.78;;;;;;;;;;5488844;26;20002;-58
2024/04/15 09:37:27;;;;;;;9.73;5.90;;;;;;;;;;5482546;26;20007;-60
2024/04/15 09:39:53;;;;;;;8.82;5.97;;;;;;;;;;5470636;26;20084;-60
2024/04/15 09:42:25;;;;;;;8.95;5.40;;;;;;;;;;5477365;26;20002;-60
2024/04/15 09:44:51;;;;;;;9.45;5.80;;;;;;;;;;5488243;26;19994;-57
2024/04/15 09:47:20;;;;;;;10.13;6.05;;;;;;;;;;5488046;26;20029;-62
2024/04/15 09:49:47;;;;;;;13.07;7.25;;;;;;;;;;5462780;26;20006;-60
2024/04/15 09:52:22;;;;;;;12.27;6.53;;;;;;;;;;5469707;26;20006;-59
2024/04/15 09:54:53;;;;;;;10.85;7.03;;;;;;;;;;5467941;26;20002;-61
2024/04/15 09:57:25;;;;;;;12.20;7.97;;;;;;;;;;5485989;26;20070;-58
2024/04/15 09:59:56;;;;;;;12.85;7.85;;;;;;;;;;5475611;26;20002;-58
2024/04/15 10:02:28;;;;;;;;;;;;;;;;;;5471639;26;20341;-59
2024/04/15 10:05:01;;;;;;;10.95;6.90;;;;;;;;;;5481453;26;19930;-57
2024/04/15 10:07:30;;;;;;;9.48;6.30;;;;;;;;;;5464858;26;20010;-60
2024/04/15 10:09:58;;;;;;;13.05;7.40;;;;;;;;;;5472163;26;20020;-61
2024/04/15 10:12:30;;;;;;;12.00;7.38;;;;;;;;;;5480933;26;20017;-58
2024/04/15 10:14:57;;;;;;;10.45;6.05;;;;;;;;;;5478604;26;20029;-58
2024/04/15 10:17:28;;;;;;;9.55;5.45;;;;;;;;;;5477138;26;20002;-59
2024/04/15 10:19:54;;;;;;;8.73;5.30;;;;;;;;;;5484828;26;20411;-55
2024/04/15 10:22:24;;;;;;;7.05;4.50;;;;;;;;;;5485776;26;20014;-59
2024/04/15 10:24:51;;;;;;;;;;;;;;;;;;5487190;26;20014;-59
2024/04/15 10:27:19;;;;;;;7.07;5.40;;;;;;;;;;5479084;26;20367;-58
2024/04/15 10:29:49;;;;;;;7.38;4.30;;;;;;;;;;5473419;26;20002;-59
2024/04/15 10:32:18;;;;;;;7.88;4.85;;;;;;;;;;5486190;26;20504;-58
2024/04/15 10:34:48;;;;;;;6.93;4.55;;;;;;;;;;5474338;26;20010;-60
2024/04/15 10:37:17;;;;;;;7.90;4.55;;;;;;;;;;5504894;26;20526;-60
2024/04/15 10:39:44;;;;;;;8.07;4.72;;;;;;;;;;5468123;26;20002;-64
2024/04/15 10:42:13;;;;;;;9.45;5.07;;;;;;;;;;5462850;26;20091;-62
2024/04/15 10:44:42;;;;;;;7.30;4.82;;;;;;;;;;5471050;26;20025;-54
2024/04/15 10:47:11;;;;;;;9.88;6.32;;;;;;;;;;5469179;26;20013;-58
2024/04/15 10:49:39;;;;;;;13.13;6.75;;;;;;;;;;5470476;26;20002;-58
2024/04/15 10:52:05;;;;;;;10.30;6.18;;;;;;;;;;5459611;26;20018;-57
2024/04/15 10:54:35;;;;;;;13.32;7.15;;;;;;;;;;5465343;26;19999;-59
2024/04/15 10:57:01;;;;;;;11.30;5.25;;;;;;;;;;5468850;26;19998;-59
2024/04/15 10:59:31;;;;;;;16.63;7.00;;;;;;;;;;5487257;26;20415;-59
2024/04/15 11:01:57;;;;;;;12.77;5.68;;;;;;;;;;5484334;26;20014;-58
2024/04/15 11:04:31;;;;;;;8.73;4.90;;;;;;;;;;5474071;26;19999;-60
2024/04/15 11:06:57;;;;;;;8.20;4.50;;;;;;;;;;5487412;26;19994;-58
2024/04/15 11:09:26;;;;;;;7.43;3.92;;;;;;;;;;5501830;26;20013;-58
2024/04/15 11:11:52;;;;;;;6.85;3.63;;;;;;;;;;5482680;26;20007;-59
2024/04/15 11:14:22;;;;;;;6.55;3.60;;;;;;;;;;5475931;26;20442;-58
2024/04/15 11:16:48;;;;;;;6.87;3.70;;;;;;;;;;5486655;26;20090;-58
2024/04/15 11:19:18;;;;;;;6.43;4.00;;;;;;;;;;5487389;26;20419;-59
2024/04/15 11:21:46;;;;;;;6.93;3.60;;;;;;;;;;5483169;26;20016;-57
2024/04/15 11:24:16;;;;;;;9.50;4.47;;;;;;;;;;5495050;25;20041;-58
2024/04/15 11:26:43;;;;;;;8.90;4.30;;;;;;;;;;5481988;26;20091;-57
2024/04/15 11:29:16;;;;;;;6.10;3.92;;;;;;;;;;5478244;26;20030;-55
2024/04/15 11:31:42;;;;;;;7.18;4.05;;;;;;;;;;5486402;26;20505;-54
2024/04/15 11:34:11;;;;;;;8.55;4.80;;;;;;;;;;5486829;26;20519;-57
2024/04/15 11:36:40;;;;;;;10.43;4.57;;;;;;;;;;5488775;26;20014;-59
2024/04/15 11:39:11;;;;;;;8.43;4.55;;;;;;;;;;5496838;25;20009;-56
2024/04/15 11:41:38;;;;;;;5.38;3.88;;;;;;;;;;5472141;26;20009;-56
2024/04/15 11:44:07;;;;;;;8.02;4.80;;;;;;;;;;5463250;26;20017;-60
2024/04/15 11:46:39;;;;;;;10.07;5.30;;;;;;;;;;5495582;26;20533;-59
2024/04/15 11:49:07;;;;;;;9.20;5.78;;;;;;;;;;5490971;26;20009;-58
2024/04/15 11:51:34;;;;;;;8.50;5.10;;;;;;;;;;5481961;26;20078;-60
2024/04/15 11:54:03;;;;;;;9.25;5.22;;;;;;;;;;5467008;26;20002;-55
2024/04/15 11:56:32;;;;;;;7.95;4.00;;;;;;;;;;5485973;26;20006;-60
2024/04/15 11:59:01;;;;;;;7.88;5.30;;;;;;;;;;5469711;26;19998;-61
2024/04/15 12:01:27;;;;;;;7.38;4.72;;;;;;;;;;5470016;26;20010;-59
2024/04/15 12:03:56;;;;;;;7.40;4.45;;;;;;;;;;5479941;26;19998;-57
2024/04/15 12:06:22;;;;;;;7.38;4.30;;;;;;;;;;5480138;26;20078;-58
2024/04/15 12:08:50;;;;;;;9.50;4.72;;;;;;;;;;5484333;26;20046;-54
2024/04/15 12:11:19;;;;;;;9.25;4.80;;;;;;;;;;5477150;26;20006;-58
2024/04/15 12:13:50;;;;;;;9.38;4.85;;;;;;;;;;5483424;26;20002;-56
2024/04/15 12:16:16;;;;;;;8.30;4.72;;;;;;;;;;5492975;25;20010;-55
2024/04/15 12:18:45;;;;;;;7.07;4.40;;;;;;;;;;5477161;26;20413;-56
2024/04/15 12:21:10;;;;;;;9.93;5.13;;;;;;;;;;5467303;26;20525;-57
2024/04/15 12:23:39;;;;;;;8.52;4.63;;;;;;;;;;5492569;26;20013;-58
2024/04/15 12:26:06;;;;;;;7.57;4.43;;;;;;;;;;5484473;26;20002;-60
2024/04/15 12:28:35;;;;;;;7.30;4.93;;;;;;;;;;5474766;26;20042;-57
2024/04/15 12:31:03;;;;;;;9.18;4.80;;;;;;;;;;5483301;26;20440;-58
2024/04/15 12:33:32;;;;;;;6.63;4.57;;;;;;;;;;5475073;26;20013;-60
2024/04/15 12:35:58;;;;;;;7.47;4.63;;;;;;;;;;5486508;26;20028;-58
2024/04/15 12:38:27;;;;;;;7.68;4.50;;;;;;;;;;5485574;26;20445;-59
2024/04/15 12:40:52;;;;;;;6.95;4.95;;;;;;;;;;5464442;26;20086;-58
2024/04/15 12:43:21;;;;;;;6.50;4.65;;;;;;;;;;5479967;26;20010;-56
2024/04/15 12:45:47;;;;;;;6.90;4.22;;;;;;;;;;5472085;26;20450;-59
2024/04/15 12:48:20;;;;;;;7.25;4.45;;;;;;;;;;5466406;26;20009;-60
2024/04/15 12:50:47;;;;;;;7.88;4.75;;;;;;;;;;5468490;26;20006;-54
2024/04/15 12:53:16;;;;;;;5.95;3.85;;;;;;;;;;5477542;26;20010;-64
2024/04/15 12:55:44;;;;;;;5.15;3.35;;;;;;;;;;5475142;26;20044;-59
2024/04/15 12:58:13;;;;;;;6.70;3.55;;;;;;;;;;5483543;26;20005;-56
2024/04/15 13:00:40;;;;;;;6.65;3.97;;;;;;;;;;5484723;26;20424;-60
2024/04/15 13:03:08;;;;;;;8.07;4.20;;;;;;;;;;5479494;26;20032;-57
2024/04/15 13:05:38;;;;;;;10.07;4.07;;;;;;;;;;5486642;26;20500;-58
2024/04/15 13:08:07;;;;;;;5.97;4.13;;;;;;;;;;5481409;26;20390;-57
2024/04/15 13:10:33;;;;;;;7.53;5.40;;;;;;;;;;5472183;26;20087;-58
2024/04/15 13:13:02;;;;;;;7.28;4.32;;;;;;;;;;5480627;26;20010;-59
2024/04/15 13:15:28;;;;;;;7.65;4.10;;;;;;;;;;5479517;26;20018;-58
2024/04/15 13:17:58;;;;;;;7.65;4.25;;;;;;;;;;5474751;26;20075;-60
2024/04/15 13:20:24;;;;;;;8.70;4.22;;;;;;;;;;5475417;26;20074;-59
2024/04/15 13:22:56;;;;;;;6.65;3.85;;;;;;;;;;5483300;26;20015;-60
2024/04/15 13:25:22;;;;;;;6.60;3.17;;;;;;;;;;5488999;26;20062;-57
2024/04/15 13:27:50;;;;;;;5.38;3.92;;;;;;;;;;5489957;26;20006;-64
2024/04/15 13:30:16;;;;;;;6.10;4.07;;;;;;;;;;5486681;26;20010;-58
2024/04/15 13:32:45;;;;;;;6.35;3.88;;;;;;;;;;5487750;26;20070;-59
2024/04/15 13:35:10;;;;;;;5.78;3.70;;;;;;;;;;5484974;26;20014;-60
2024/04/15 13:37:39;;;;;;;5.38;3.83;;;;;;;;;;5489989;26;20074;-60
2024/04/15 13:40:10;;;;;;;5.95;4.07;;;;;;;;;;5490108;26;20414;-58
2024/04/15 13:42:38;;;;;;;7.30;3.90;;;;;;;;;;5487834;26;20006;-58
2024/04/15 13:45:05;;;;;;;8.00;4.30;;;;;;;;;;5482057;26;20379;-56
2024/04/15 13:47:33;;;;;;;6.28;4.10;;;;;;;;;;5472706;26;20014;-57
2024/04/15 13:49:59;;;;;;;5.68;3.22;;;;;;;;;;5470771;26;20018;-55
2024/04/15 13:52:28;;;;;;;4.95;3.30;;;;;;;;;;5475181;26;20457;-57
2024/04/15 13:54:54;;;;;;;6.00;3.67;;;;;;;;;;5476668;26;20002;-58
2024/04/15 13:57:27;;;;;;;7.13;4.07;;;;;;;;;;5481470;26;20013;-57
2024/04/15 13:59:54;;;;;;;6.20;3.78;;;;;;;;;;5473174;26;20002;-58
2024/04/15 14:02:22;;;;;;;7.13;4.05;;;;;;;;;;5481093;26;19999;-60
2024/04/15 14:04:49;;;;;;;7.40;4.13;;;;;;;;;;5481860;26;20009;-57
2024/04/15 14:07:18;;;;;;;6.13;3.80;;;;;;;;;;5474122;26;20002;-57
2024/04/15 14:09:44;;;;;;;6.13;3.97;;;;;;;;;;5476454;26;20353;-52
2024/04/15 14:12:13;;;;;;;7.68;4.20;;;;;;;;;;5480182;26;20013;-56
2024/04/15 14:14:42;;;;;;;7.97;4.20;;;;;;;;;;5480514;26;20024;-58
2024/04/15 14:17:12;;;;;;;7.03;4.55;;;;;;;;;;5468552;26;20003;-56
2024/04/15 14:19:38;;;;;;;7.45;4.82;;;;;;;;;;5471366;26;20025;-55
2024/04/15 14:22:07;;;;;;;6.75;4.38;;;;;;;;;;5483782;26;20006;-56
2024/04/15 14:24:34;;;;;;;6.40;4.03;;;;;;;;;;5486244;26;20081;-59
2024/04/15 14:27:02;;;;;;;7.38;4.07;;;;;;;;;;5467285;26;20570;-56
2024/04/15 14:29:28;;;;;;;5.57;3.70;;;;;;;;;;5481254;26;20018;-55
2024/04/15 14:32:00;;;;;;;5.50;3.40;;;;;;;;;;5473859;26;20013;-56
2024/04/15 14:34:25;;;;;;;6.47;3.35;;;;;;;;;;5486784;26;20056;-56
2024/04/15 14:36:54;;;;;;;5.53;3.80;;;;;;;;;;5487903;26;20010;-57
2024/04/15 14:39:20;;;;;;;6.95;3.80;;;;;;;;;;5488318;26;20006;-57
2024/04/15 14:41:48;;;;;;;7.63;3.67;;;;;;;;;;5467269;26;19999;-57
2024/04/15 14:44:14;;;;;;;5.80;3.30;;;;;;;;;;5465349;26;20079;-58
2024/04/15 14:46:43;;;;;;;5.93;3.50;;;;;;;;;;5482258;26;20398;-57